sensor_id;sensor_type;location;lat;lon;timestamp;pressure;altitude;pressure_sealevel;temperature;humidity
30744;BME280;17486;46.738;7.622;2023-05-22T00:01:38;95020.13;;;17.46;63.67
30744;BME280;17486;46.738;7.622;2023-05-22T00:04:03;95015.13;;;17.43;63.45
30744;BME280;17486;46.738;7.622;2023-05-22T00:06:29;95002.72;;;17.34;63.70
30744;BME280;17486;46.738;7.622;2023-05-22T00:08:54;94999.38;;;17.32;63.45
30744;BME280;17486;46.738;7.622;2023-05-22T00:11:21;95014.53;;;17.39;63.73
30744;BME280;17486;46.738;7.622;2023-05-22T00:13:46;95005.84;;;17.28;63.47
30744;BME280;17486;46.738;7.622;2023-05-22T00:16:12;95000.38;;;17.19;63.75
30744;BME280;17486;46.738;7.622;2023-05-22T00:18:37;95008.97;;;17.21;64.08
30744;BME280;17486;46.738;7.622;2023-05-22T00:21:06;95006.72;;;17.17;64.32
30744;BME280;17486;46.738;7.622;2023-05-22T00:23:31;95011.22;;;17.15;64.34
30744;BME280;17486;46.738;7.622;2023-05-22T00:25:57;95007.91;;;17.13;64.58
30744;BME280;17486;46.738;7.622;2023-05-22T00:28:22;95016.25;;;17.18;64.27
30744;BME280;17486;46.738;7.622;2023-05-22T00:30:48;95018.78;;;17.19;64.16
30744;BME280;17486;46.738;7.622;2023-05-22T00:33:13;95009.06;;;17.20;64.28
30744;BME280;17486;46.738;7.622;2023-05-22T00:35:38;95007.19;;;17.22;64.26
30744;BME280;17486;46.738;7.622;2023-05-22T00:38:04;95006.44;;;17.20;64.06
30744;BME280;17486;46.738;7.622;2023-05-22T00:40:30;95011.69;;;17.20;64.04
30744;BME280;17486;46.738;7.622;2023-05-22T00:42:55;95012.09;;;17.15;64.20
30744;BME280;17486;46.738;7.622;2023-05-22T00:45:21;95007.56;;;17.06;63.97
30744;BME280;17486;46.738;7.622;2023-05-22T00:47:49;94987.25;;;16.85;64.01
30744;BME280;17486;46.738;7.622;2023-05-22T00:50:14;95004.13;;;16.94;64.15
30744;BME280;17486;46.738;7.622;2023-05-22T00:52:41;95004.34;;;16.91;64.75
30744;BME280;17486;46.738;7.622;2023-05-22T00:55:09;95004.56;;;16.88;64.72
30744;BME280;17486;46.738;7.622;2023-05-22T00:57:35;95009.81;;;16.88;64.37
30744;BME280;17486;46.738;7.622;2023-05-22T01:00:03;94973.06;;;16.65;64.62
30744;BME280;17486;46.738;7.622;2023-05-22T01:02:33;95009.72;;;16.78;64.37
30744;BME280;17486;46.738;7.622;2023-05-22T01:04:58;95015.53;;;16.82;64.49
30744;BME280;17486;46.738;7.622;2023-05-22T01:07:23;95011.50;;;16.78;64.41
30744;BME280;17486;46.738;7.622;2023-05-22T01:09:49;95006.97;;;16.80;64.13
30744;BME280;17486;46.738;7.622;2023-05-22T01:12:33;94995.03;;;16.64;63.81
30744;BME280;17486;46.738;7.622;2023-05-22T01:15:09;95012.94;;;16.59;63.98
30744;BME280;17486;46.738;7.622;2023-05-22T01:20:40;95003.84;;;16.40;64.62
30744;BME280;17486;46.738;7.622;2023-05-22T01:26:21;95006.81;;;16.36;64.38
30744;BME280;17486;46.738;7.622;2023-05-22T01:31:44;94994.28;;;16.28;63.37
30744;BME280;17486;46.738;7.622;2023-05-22T01:34:12;94990.09;;;16.14;63.85
30744;BME280;17486;46.738;7.622;2023-05-22T01:36:39;95002.72;;;16.20;63.82
30744;BME280;17486;46.738;7.622;2023-05-22T01:39:06;95000.72;;;16.13;64.38
30744;BME280;17486;46.738;7.622;2023-05-22T01:41:33;95008.09;;;16.19;64.14
30744;BME280;17486;46.738;7.622;2023-05-22T01:43:59;94981.00;;;16.07;64.21
30744;BME280;17486;46.738;7.622;2023-05-22T01:46:26;95013.13;;;16.22;64.33
30744;BME280;17486;46.738;7.622;2023-05-22T01:48:52;95008.38;;;16.27;64.28
30744;BME280;17486;46.738;7.622;2023-05-22T01:54:06;95020.53;;;16.39;63.99
30744;BME280;17486;46.738;7.622;2023-05-22T01:56:55;95028.09;;;16.44;63.27
30744;BME280;17486;46.738;7.622;2023-05-22T01:59:31;95023.41;;;16.48;63.01
30744;BME280;17486;46.738;7.622;2023-05-22T02:02:05;95028.19;;;16.54;62.87
30744;BME280;17486;46.738;7.622;2023-05-22T02:04:35;95026.19;;;16.57;62.79
30744;BME280;17486;46.738;7.622;2023-05-22T02:07:02;95027.94;;;16.57;62.54
30744;BME280;17486;46.738;7.622;2023-05-22T02:09:29;95014.59;;;16.49;62.36
30744;BME280;17486;46.738;7.622;2023-05-22T02:11:58;95031.31;;;16.59;62.18
30744;BME280;17486;46.738;7.622;2023-05-22T02:14:24;95026.31;;;16.56;62.47
30744;BME280;17486;46.738;7.622;2023-05-22T02:16:50;95023.78;;;16.54;62.19
30744;BME280;17486;46.738;7.622;2023-05-22T02:19:15;95026.19;;;16.57;62.53
30744;BME280;17486;46.738;7.622;2023-05-22T02:21:41;95015.56;;;16.59;62.16
30744;BME280;17486;46.738;7.622;2023-05-22T02:24:07;95015.81;;;16.56;62.04
30744;BME280;17486;46.738;7.622;2023-05-22T02:26:32;95022.00;;;16.55;62.24
30744;BME280;17486;46.738;7.622;2023-05-22T02:28:57;95019.38;;;16.55;62.04
30744;BME280;17486;46.738;7.622;2023-05-22T02:31:23;94997.66;;;16.41;61.63
30744;BME280;17486;46.738;7.622;2023-05-22T02:33:48;95018.88;;;16.50;61.69
30744;BME280;17486;46.738;7.622;2023-05-22T02:36:14;95020.78;;;16.48;61.37
30744;BME280;17486;46.738;7.622;2023-05-22T02:38:39;95021.84;;;16.45;61.47
30744;BME280;17486;46.738;7.622;2023-05-22T02:41:06;95024.47;;;16.45;61.00
30744;BME280;17486;46.738;7.622;2023-05-22T02:43:32;95004.34;;;16.46;60.48
30744;BME280;17486;46.738;7.622;2023-05-22T02:45:57;95012.34;;;16.44;60.43
30744;BME280;17486;46.738;7.622;2023-05-22T02:48:22;95017.59;;;16.44;60.16
30744;BME280;17486;46.738;7.622;2023-05-22T02:50:48;95019.47;;;16.42;60.36
30744;BME280;17486;46.738;7.622;2023-05-22T02:53:14;95019.59;;;16.40;60.28
30744;BME280;17486;46.738;7.622;2023-05-22T02:55:42;95003.59;;;16.32;60.70
30744;BME280;17486;46.738;7.622;2023-05-22T02:58:10;94996.06;;;16.28;60.90
30744;BME280;17486;46.738;7.622;2023-05-22T03:00:38;95006.81;;;16.36;60.68
30744;BME280;17486;46.738;7.622;2023-05-22T03:03:04;95004.44;;;16.33;60.57
30744;BME280;17486;46.738;7.622;2023-05-22T03:05:29;94997.25;;;16.23;60.22
30744;BME280;17486;46.738;7.622;2023-05-22T03:07:56;95005.75;;;16.27;60.59
30744;BME280;17486;46.738;7.622;2023-05-22T03:10:22;95006.91;;;16.23;60.43
30744;BME280;17486;46.738;7.622;2023-05-22T03:12:48;95004.28;;;16.23;60.51
30744;BME280;17486;46.738;7.622;2023-05-22T03:15:13;95007.03;;;16.21;60.44
30744;BME280;17486;46.738;7.622;2023-05-22T03:17:39;94996.63;;;16.08;60.43
30744;BME280;17486;46.738;7.622;2023-05-22T03:20:05;95015.47;;;16.14;60.38
30744;BME280;17486;46.738;7.622;2023-05-22T03:22:31;95024.53;;;16.10;60.71
30744;BME280;17486;46.738;7.622;2023-05-22T03:24:56;94999.94;;;15.88;60.66
30744;BME280;17486;46.738;7.622;2023-05-22T03:27:22;95008.97;;;15.84;60.72
30744;BME280;17486;46.738;7.622;2023-05-22T03:29:47;95035.59;;;15.90;60.87
30744;BME280;17486;46.738;7.622;2023-05-22T03:32:12;95031.63;;;15.85;61.15
30744;BME280;17486;46.738;7.622;2023-05-22T03:34:38;95004.34;;;15.63;60.84
30744;BME280;17486;46.738;7.622;2023-05-22T03:37:03;95027.75;;;15.78;61.13
30744;BME280;17486;46.738;7.622;2023-05-22T03:39:28;95006.03;;;15.64;61.27
30744;BME280;17486;46.738;7.622;2023-05-22T03:41:54;95029.88;;;15.72;61.50
30744;BME280;17486;46.738;7.622;2023-05-22T03:44:19;95023.75;;;15.61;60.90
30744;BME280;17486;46.738;7.622;2023-05-22T03:46:45;95029.28;;;15.45;61.36
30744;BME280;17486;46.738;7.622;2023-05-22T03:49:10;95020.53;;;15.33;61.95
30744;BME280;17486;46.738;7.622;2023-05-22T03:51:35;95025.34;;;15.26;62.25
30744;BME280;17486;46.738;7.622;2023-05-22T03:54:01;95026.31;;;15.25;62.67
30744;BME280;17486;46.738;7.622;2023-05-22T03:56:26;95035.94;;;15.24;62.71
30744;BME280;17486;46.738;7.622;2023-05-22T03:58:52;95015.53;;;15.17;62.33
30744;BME280;17486;46.738;7.622;2023-05-22T04:01:17;95033.19;;;15.26;62.93
30744;BME280;17486;46.738;7.622;2023-05-22T04:03:43;95034.06;;;15.27;62.47
30744;BME280;17486;46.738;7.622;2023-05-22T04:06:08;95032.25;;;15.27;62.50
30744;BME280;17486;46.738;7.622;2023-05-22T04:08:34;95031.88;;;15.20;62.52
30744;BME280;17486;46.738;7.622;2023-05-22T04:11:00;95040.25;;;15.25;62.55
30744;BME280;17486;46.738;7.622;2023-05-22T04:13:27;95047.34;;;15.23;62.46
30744;BME280;17486;46.738;7.622;2023-05-22T04:15:55;95038.41;;;15.15;62.98
30744;BME280;17486;46.738;7.622;2023-05-22T04:18:20;95049.81;;;15.14;62.65
30744;BME280;17486;46.738;7.622;2023-05-22T04:20:46;95046.91;;;15.05;63.25
30744;BME280;17486;46.738;7.622;2023-05-22T04:23:11;95044.28;;;15.05;62.87
30744;BME280;17486;46.738;7.622;2023-05-22T04:25:37;95037.59;;;15.01;62.87
30744;BME280;17486;46.738;7.622;2023-05-22T04:28:02;95028.47;;;14.94;63.18
30744;BME280;17486;46.738;7.622;2023-05-22T04:30:29;95056.00;;;15.00;63.14
30744;BME280;17486;46.738;7.622;2023-05-22T04:32:58;95051.41;;;14.90;63.46
30744;BME280;17486;46.738;7.622;2023-05-22T04:35:24;95040.34;;;14.87;63.46
30744;BME280;17486;46.738;7.622;2023-05-22T04:37:49;95037.81;;;14.85;63.47
30744;BME280;17486;46.738;7.622;2023-05-22T04:40:15;95063.56;;;15.04;63.87
30744;BME280;17486;46.738;7.622;2023-05-22T04:42:40;95066.06;;;15.06;63.95
30744;BME280;17486;46.738;7.622;2023-05-22T04:45:10;95038.72;;;14.97;63.50
30744;BME280;17486;46.738;7.622;2023-05-22T04:47:37;95059.53;;;15.12;63.61
30744;BME280;17486;46.738;7.622;2023-05-22T04:50:06;95057.91;;;15.11;63.43
30744;BME280;17486;46.738;7.622;2023-05-22T04:52:31;95077.22;;;15.21;63.58
30744;BME280;17486;46.738;7.622;2023-05-22T04:54:57;95027.13;;;15.01;63.34
30744;BME280;17486;46.738;7.622;2023-05-22T04:57:22;95074.41;;;15.24;63.22
30744;BME280;17486;46.738;7.622;2023-05-22T04:59:50;95069.28;;;15.22;63.31
30744;BME280;17486;46.738;7.622;2023-05-22T05:02:16;95061.50;;;15.21;63.55
30744;BME280;17486;46.738;7.622;2023-05-22T05:04:41;95069.69;;;15.29;63.56
30744;BME280;17486;46.738;7.622;2023-05-22T05:07:07;95059.91;;;15.31;63.11
30744;BME280;17486;46.738;7.622;2023-05-22T05:09:33;95045.16;;;15.30;63.14
30744;BME280;17486;46.738;7.622;2023-05-22T05:11:58;95067.84;;;15.42;62.97
30744;BME280;17486;46.738;7.622;2023-05-22T05:14:24;95061.44;;;15.47;63.31
30744;BME280;17486;46.738;7.622;2023-05-22T05:16:50;95041.75;;;15.41;63.31
30744;BME280;17486;46.738;7.622;2023-05-22T05:19:19;95059.84;;;15.57;62.89
30744;BME280;17486;46.738;7.622;2023-05-22T05:21:48;95060.22;;;15.64;63.12
30744;BME280;17486;46.738;7.622;2023-05-22T05:24:16;95058.94;;;15.69;62.76
30744;BME280;17486;46.738;7.622;2023-05-22T05:26:42;95055.75;;;15.77;62.36
30744;BME280;17486;46.738;7.622;2023-05-22T05:29:08;95037.75;;;15.72;62.46
30744;BME280;17486;46.738;7.622;2023-05-22T05:31:33;95058.13;;;15.93;62.26
30744;BME280;17486;46.738;7.622;2023-05-22T05:33:59;95050.53;;;16.01;62.35
30744;BME280;17486;46.738;7.622;2023-05-22T05:36:24;95047.53;;;16.06;62.16
30744;BME280;17486;46.738;7.622;2023-05-22T05:38:50;95057.38;;;16.15;61.93
30744;BME280;17486;46.738;7.622;2023-05-22T05:41:15;95063.94;;;16.21;62.22
30744;BME280;17486;46.738;7.622;2023-05-22T05:43:41;95057.25;;;16.28;62.64
30744;BME280;17486;46.738;7.622;2023-05-22T05:46:06;95049.88;;;16.33;62.82
30744;BME280;17486;46.738;7.622;2023-05-22T05:48:31;95055.41;;;16.41;62.46
30744;BME280;17486;46.738;7.622;2023-05-22T05:50:57;95055.16;;;16.45;62.82
30744;BME280;17486;46.738;7.622;2023-05-22T05:53:22;95056.09;;;16.44;61.66
30744;BME280;17486;46.738;7.622;2023-05-22T05:55:47;95058.72;;;16.44;61.44
30744;BME280;17486;46.738;7.622;2023-05-22T05:58:13;95043.72;;;16.46;61.32
30744;BME280;17486;46.738;7.622;2023-05-22T06:00:38;95044.41;;;16.48;60.82
30744;BME280;17486;46.738;7.622;2023-05-22T06:03:06;95059.72;;;16.65;60.57
30744;BME280;17486;46.738;7.622;2023-05-22T06:05:31;95063.41;;;16.74;60.40
30744;BME280;17486;46.738;7.622;2023-05-22T06:07:57;95057.81;;;16.79;60.70
30744;BME280;17486;46.738;7.622;2023-05-22T06:10:23;95057.34;;;16.73;60.48
30744;BME280;17486;46.738;7.622;2023-05-22T06:12:48;95059.59;;;16.67;60.66
30744;BME280;17486;46.738;7.622;2023-05-22T06:15:14;95067.38;;;16.80;60.96
30744;BME280;17486;46.738;7.622;2023-05-22T06:17:39;95059.50;;;16.80;60.97
30744;BME280;17486;46.738;7.622;2023-05-22T06:20:05;95053.38;;;16.79;60.60
30744;BME280;17486;46.738;7.622;2023-05-22T06:22:31;95064.75;;;16.91;60.70
30744;BME280;17486;46.738;7.622;2023-05-22T06:24:57;95060.50;;;16.90;60.65
30744;BME280;17486;46.738;7.622;2023-05-22T06:27:22;95054.25;;;16.91;60.69
30744;BME280;17486;46.738;7.622;2023-05-22T06:29:49;95065.38;;;17.06;60.14
30744;BME280;17486;46.738;7.622;2023-05-22T06:32:15;95069.06;;;17.15;60.15
30744;BME280;17486;46.738;7.622;2023-05-22T06:34:41;95068.81;;;17.18;59.63
30744;BME280;17486;46.738;7.622;2023-05-22T06:37:08;95035.25;;;17.10;59.28
30744;BME280;17486;46.738;7.622;2023-05-22T06:39:34;95057.19;;;17.32;59.13
30744;BME280;17486;46.738;7.622;2023-05-22T06:42:00;95024.63;;;17.23;58.74
30744;BME280;17486;46.738;7.622;2023-05-22T06:44:25;95058.25;;;17.52;58.53
30744;BME280;17486;46.738;7.622;2023-05-22T06:46:51;95039.13;;;17.50;58.04
30744;BME280;17486;46.738;7.622;2023-05-22T06:49:17;95045.19;;;17.62;57.79
30744;BME280;17486;46.738;7.622;2023-05-22T06:51:43;95056.97;;;17.79;57.58
30744;BME280;17486;46.738;7.622;2023-05-22T06:54:09;95053.97;;;17.83;57.25
30744;BME280;17486;46.738;7.622;2023-05-22T06:56:36;95054.19;;;17.92;57.12
30744;BME280;17486;46.738;7.622;2023-05-22T06:59:02;95057.16;;;17.98;56.95
30744;BME280;17486;46.738;7.622;2023-05-22T07:01:28;95055.25;;;18.00;58.72
30744;BME280;17486;46.738;7.622;2023-05-22T07:03:56;95057.72;;;18.13;58.22
30744;BME280;17486;46.738;7.622;2023-05-22T07:06:22;95053.84;;;18.17;58.18
30744;BME280;17486;46.738;7.622;2023-05-22T07:08:49;95061.56;;;18.30;58.20
30744;BME280;17486;46.738;7.622;2023-05-22T07:11:14;95054.94;;;18.36;57.97
30744;BME280;17486;46.738;7.622;2023-05-22T07:13:40;95044.78;;;18.31;56.94
30744;BME280;17486;46.738;7.622;2023-05-22T07:16:06;95054.19;;;18.45;55.16
30744;BME280;17486;46.738;7.622;2023-05-22T07:18:31;95062.66;;;18.49;55.25
30744;BME280;17486;46.738;7.622;2023-05-22T07:20:57;95036.38;;;18.37;54.62
30744;BME280;17486;46.738;7.622;2023-05-22T07:23:22;95037.28;;;18.48;54.34
30744;BME280;17486;46.738;7.622;2023-05-22T07:25:48;95054.16;;;18.66;54.18
30744;BME280;17486;46.738;7.622;2023-05-22T07:28:13;95054.31;;;18.75;54.09
30744;BME280;17486;46.738;7.622;2023-05-22T07:30:39;95062.81;;;18.78;54.11
30744;BME280;17486;46.738;7.622;2023-05-22T07:33:04;95049.94;;;18.85;54.17
30744;BME280;17486;46.738;7.622;2023-05-22T07:35:30;95056.53;;;18.91;53.81
30744;BME280;17486;46.738;7.622;2023-05-22T07:37:56;95042.63;;;18.88;52.94
30744;BME280;17486;46.738;7.622;2023-05-22T07:40:21;95040.72;;;18.91;52.91
30744;BME280;17486;46.738;7.622;2023-05-22T07:42:47;95050.31;;;19.01;52.72
30744;BME280;17486;46.738;7.622;2023-05-22T07:45:12;95046.59;;;19.04;52.58
30744;BME280;17486;46.738;7.622;2023-05-22T07:47:37;95047.84;;;19.10;52.69
30744;BME280;17486;46.738;7.622;2023-05-22T07:50:03;95049.81;;;19.17;52.65
30744;BME280;17486;46.738;7.622;2023-05-22T07:52:29;95032.75;;;19.12;52.62
30744;BME280;17486;46.738;7.622;2023-05-22T07:54:56;95044.31;;;19.30;52.58
30744;BME280;17486;46.738;7.622;2023-05-22T07:57:21;95031.66;;;19.24;52.93
30744;BME280;17486;46.738;7.622;2023-05-22T07:59:47;95036.72;;;19.47;52.17
30744;BME280;17486;46.738;7.622;2023-05-22T08:02:13;95042.69;;;19.49;52.28
30744;BME280;17486;46.738;7.622;2023-05-22T08:04:38;95041.88;;;19.58;52.07
30744;BME280;17486;46.738;7.622;2023-05-22T08:07:04;95042.28;;;19.63;52.08
30744;BME280;17486;46.738;7.622;2023-05-22T08:09:29;95032.16;;;19.59;51.94
30744;BME280;17486;46.738;7.622;2023-05-22T08:11:55;95018.97;;;19.59;51.90
30744;BME280;17486;46.738;7.622;2023-05-22T08:14:20;95025.78;;;19.71;52.42
30744;BME280;17486;46.738;7.622;2023-05-22T08:16:46;95040.13;;;19.88;51.92
30744;BME280;17486;46.738;7.622;2023-05-22T08:19:11;95038.88;;;19.92;51.60
30744;BME280;17486;46.738;7.622;2023-05-22T08:21:37;95035.97;;;19.95;51.62
30744;BME280;17486;46.738;7.622;2023-05-22T08:24:02;95032.75;;;20.01;51.45
30744;BME280;17486;46.738;7.622;2023-05-22T08:26:28;95025.81;;;20.00;51.54
30744;BME280;17486;46.738;7.622;2023-05-22T08:28:53;95037.09;;;20.12;51.29
30744;BME280;17486;46.738;7.622;2023-05-22T08:31:19;95027.47;;;20.21;51.00
30744;BME280;17486;46.738;7.622;2023-05-22T08:33:44;95032.34;;;20.26;50.98
30744;BME280;17486;46.738;7.622;2023-05-22T08:36:10;95003.13;;;20.17;51.25
30744;BME280;17486;46.738;7.622;2023-05-22T08:38:35;95024.69;;;20.32;52.12
30744;BME280;17486;46.738;7.622;2023-05-22T08:41:01;95003.28;;;20.26;52.65
30744;BME280;17486;46.738;7.622;2023-05-22T08:43:27;95019.91;;;20.46;52.71
30744;BME280;17486;46.738;7.622;2023-05-22T08:45:59;95018.91;;;20.57;52.83
30744;BME280;17486;46.738;7.622;2023-05-22T08:48:31;95008.75;;;20.72;52.27
30744;BME280;17486;46.738;7.622;2023-05-22T08:50:57;95009.34;;;20.93;51.94
30744;BME280;17486;46.738;7.622;2023-05-22T08:53:27;95005.25;;;21.09;51.46
30744;BME280;17486;46.738;7.622;2023-05-22T08:55:53;95004.09;;;21.21;51.22
30744;BME280;17486;46.738;7.622;2023-05-22T08:58:20;95007.66;;;21.30;51.07
30744;BME280;17486;46.738;7.622;2023-05-22T09:00:46;95003.72;;;21.34;51.24
30744;BME280;17486;46.738;7.622;2023-05-22T09:03:12;95004.72;;;21.33;50.25
30744;BME280;17486;46.738;7.622;2023-05-22T09:05:39;95013.31;;;21.35;49.97
30744;BME280;17486;46.738;7.622;2023-05-22T09:08:06;95007.06;;;21.36;49.72
30744;BME280;17486;46.738;7.622;2023-05-22T09:10:34;94982.63;;;21.24;49.62
30744;BME280;17486;46.738;7.622;2023-05-22T09:13:03;94994.75;;;21.45;49.65
30744;BME280;17486;46.738;7.622;2023-05-22T09:15:32;95000.44;;;21.50;49.71
30744;BME280;17486;46.738;7.622;2023-05-22T09:17:59;94998.72;;;21.59;49.50
30744;BME280;17486;46.738;7.622;2023-05-22T09:20:25;94997.16;;;21.66;49.37
30744;BME280;17486;46.738;7.622;2023-05-22T09:22:50;95005.09;;;21.84;48.88
30744;BME280;17486;46.738;7.622;2023-05-22T09:25:20;94986.31;;;21.95;48.31
30744;BME280;17486;46.738;7.622;2023-05-22T09:27:48;94999.81;;;22.28;47.89
30744;BME280;17486;46.738;7.622;2023-05-22T09:30:17;95000.94;;;22.44;46.67
30744;BME280;17486;46.738;7.622;2023-05-22T09:32:43;95001.47;;;22.47;46.22
30744;BME280;17486;46.738;7.622;2023-05-22T09:35:09;94992.72;;;22.47;45.83
30744;BME280;17486;46.738;7.622;2023-05-22T09:37:35;94999.34;;;22.51;46.14
30744;BME280;17486;46.738;7.622;2023-05-22T09:40:05;95000.84;;;22.54;45.90
30744;BME280;17486;46.738;7.622;2023-05-22T09:42:32;94995.75;;;22.60;45.68
30744;BME280;17486;46.738;7.622;2023-05-22T09:45:02;95005.59;;;22.68;46.05
30744;BME280;17486;46.738;7.622;2023-05-22T09:47:28;94990.03;;;22.73;45.23
30744;BME280;17486;46.738;7.622;2023-05-22T09:49:56;94980.56;;;22.71;45.24
30744;BME280;17486;46.738;7.622;2023-05-22T09:52:23;94990.09;;;22.90;45.40
30744;BME280;17486;46.738;7.622;2023-05-22T09:54:54;94994.94;;;22.94;44.49
30744;BME280;17486;46.738;7.622;2023-05-22T09:57:24;94975.75;;;23.00;44.34
30744;BME280;17486;46.738;7.622;2023-05-22T09:59:51;94979.50;;;23.24;44.49
30744;BME280;17486;46.738;7.622;2023-05-22T10:02:22;94983.03;;;23.41;43.82
30744;BME280;17486;46.738;7.622;2023-05-22T10:04:48;94976.44;;;23.54;43.40
30744;BME280;17486;46.738;7.622;2023-05-22T10:07:33;94982.75;;;23.61;42.55
30744;BME280;17486;46.738;7.622;2023-05-22T10:10:04;94979.59;;;23.65;43.21
30744;BME280;17486;46.738;7.622;2023-05-22T10:12:32;94979.94;;;23.79;43.81
30744;BME280;17486;46.738;7.622;2023-05-22T10:14:59;94977.13;;;23.89;45.16
30744;BME280;17486;46.738;7.622;2023-05-22T10:17:27;94977.34;;;23.95;46.00
30744;BME280;17486;46.738;7.622;2023-05-22T10:19:54;94975.66;;;24.03;46.06
30744;BME280;17486;46.738;7.622;2023-05-22T10:22:21;94978.66;;;24.08;45.58
30744;BME280;17486;46.738;7.622;2023-05-22T10:24:47;94981.34;;;24.16;46.07
30744;BME280;17486;46.738;7.622;2023-05-22T10:27:13;94968.72;;;24.26;46.24
30744;BME280;17486;46.738;7.622;2023-05-22T10:30:18;94975.47;;;24.45;45.71
30744;BME280;17486;46.738;7.622;2023-05-22T10:35:38;94959.66;;;24.77;45.84
30744;BME280;17486;46.738;7.622;2023-05-22T10:41:02;94953.75;;;24.98;44.72
30744;BME280;17486;46.738;7.622;2023-05-22T10:43:31;94941.28;;;24.98;43.61
30744;BME280;17486;46.738;7.622;2023-05-22T10:46:04;94938.94;;;25.04;41.75
30744;BME280;17486;46.738;7.622;2023-05-22T10:48:43;94951.84;;;25.15;41.04
30744;BME280;17486;46.738;7.622;2023-05-22T10:51:11;94955.78;;;25.27;41.11
30744;BME280;17486;46.738;7.622;2023-05-22T10:53:37;94959.44;;;25.35;40.67
30744;BME280;17486;46.738;7.622;2023-05-22T10:56:12;94958.56;;;25.34;40.86
30744;BME280;17486;46.738;7.622;2023-05-22T10:58:38;94954.72;;;25.45;40.56
30744;BME280;17486;46.738;7.622;2023-05-22T11:01:16;94945.66;;;25.54;39.49
30744;BME280;17486;46.738;7.622;2023-05-22T11:03:58;94957.81;;;25.80;39.97
30744;BME280;17486;46.738;7.622;2023-05-22T11:06:43;94958.16;;;26.00;40.67
30744;BME280;17486;46.738;7.622;2023-05-22T11:09:39;94952.91;;;26.15;40.28
30744;BME280;17486;46.738;7.622;2023-05-22T11:12:18;94954.31;;;26.26;38.90
30744;BME280;17486;46.738;7.622;2023-05-22T11:14:57;94950.56;;;26.35;39.07
30744;BME280;17486;46.738;7.622;2023-05-22T11:17:30;94947.47;;;26.46;38.75
30744;BME280;17486;46.738;7.622;2023-05-22T11:20:03;94934.50;;;26.58;38.28
30744;BME280;17486;46.738;7.622;2023-05-22T11:22:37;94942.03;;;26.70;38.26
30744;BME280;17486;46.738;7.622;2023-05-22T11:25:10;94940.50;;;26.75;37.20
30744;BME280;17486;46.738;7.622;2023-05-22T11:27:36;94939.59;;;26.83;37.69
30744;BME280;17486;46.738;7.622;2023-05-22T11:30:03;94905.81;;;26.75;36.89
30744;BME280;17486;46.738;7.622;2023-05-22T11:32:29;94933.13;;;27.07;36.63
30744;BME280;17486;46.738;7.622;2023-05-22T11:34:55;94914.56;;;27.21;36.62
30744;BME280;17486;46.738;7.622;2023-05-22T11:37:21;94903.34;;;27.25;36.49
30744;BME280;17486;46.738;7.622;2023-05-22T11:39:55;94916.69;;;27.40;36.65
30744;BME280;17486;46.738;7.622;2023-05-22T11:42:20;94917.41;;;27.49;36.67
30744;BME280;17486;46.738;7.622;2023-05-22T11:44:46;94898.44;;;27.44;35.93
30744;BME280;17486;46.738;7.622;2023-05-22T11:47:11;94904.69;;;27.51;35.40
30744;BME280;17486;46.738;7.622;2023-05-22T11:49:37;94905.00;;;27.63;35.21
30744;BME280;17486;46.738;7.622;2023-05-22T11:52:03;94880.13;;;27.41;35.50
30744;BME280;17486;46.738;7.622;2023-05-22T11:54:31;94894.22;;;27.56;35.15
30744;BME280;17486;46.738;7.622;2023-05-22T11:56:57;94900.03;;;27.60;34.53
30744;BME280;17486;46.738;7.622;2023-05-22T11:59:22;94901.19;;;27.72;34.26
30744;BME280;17486;46.738;7.622;2023-05-22T12:01:51;94907.03;;;27.83;33.33
30744;BME280;17486;46.738;7.622;2023-05-22T12:04:16;94891.81;;;27.83;34.77
30744;BME280;17486;46.738;7.622;2023-05-22T12:06:41;94894.16;;;27.93;33.21
30744;BME280;17486;46.738;7.622;2023-05-22T12:09:07;94896.91;;;28.00;33.71
30744;BME280;17486;46.738;7.622;2023-05-22T12:11:36;94890.09;;;27.97;34.10
30744;BME280;17486;46.738;7.622;2023-05-22T12:14:02;94883.91;;;27.96;33.47
30744;BME280;17486;46.738;7.622;2023-05-22T12:16:35;94895.53;;;28.04;31.34
30744;BME280;17486;46.738;7.622;2023-05-22T12:19:08;94883.09;;;27.96;30.75
30744;BME280;17486;46.738;7.622;2023-05-22T12:21:34;94881.03;;;27.98;30.46
30744;BME280;17486;46.738;7.622;2023-05-22T12:24:04;94891.03;;;28.11;29.96
30744;BME280;17486;46.738;7.622;2023-05-22T12:26:31;94889.88;;;28.20;30.00
30744;BME280;17486;46.738;7.622;2023-05-22T12:28:57;94885.00;;;28.31;29.28
30744;BME280;17486;46.738;7.622;2023-05-22T12:31:23;94884.91;;;28.45;29.28
30744;BME280;17486;46.738;7.622;2023-05-22T12:33:53;94890.91;;;28.54;29.00
30744;BME280;17486;46.738;7.622;2023-05-22T12:36:19;94885.19;;;28.57;28.03
30744;BME280;17486;46.738;7.622;2023-05-22T12:38:45;94892.19;;;28.58;26.99
30744;BME280;17486;46.738;7.622;2023-05-22T12:41:10;94890.97;;;28.61;26.62
30744;BME280;17486;46.738;7.622;2023-05-22T12:43:36;94891.38;;;28.58;26.81
30744;BME280;17486;46.738;7.622;2023-05-22T12:46:01;94883.91;;;28.53;27.78
30744;BME280;17486;46.738;7.622;2023-05-22T12:48:26;94888.88;;;28.56;27.56
30744;BME280;17486;46.738;7.622;2023-05-22T12:50:52;94878.63;;;28.60;28.41
30744;BME280;17486;46.738;7.622;2023-05-22T12:53:18;94870.78;;;28.58;28.53
30744;BME280;17486;46.738;7.622;2023-05-22T12:55:43;94872.75;;;28.78;27.07
30744;BME280;17486;46.738;7.622;2023-05-22T12:58:09;94878.38;;;28.97;27.15
30744;BME280;17486;46.738;7.622;2023-05-22T13:00:34;94880.47;;;29.01;26.97
30744;BME280;17486;46.738;7.622;2023-05-22T13:03:00;94875.59;;;29.11;27.11
30744;BME280;17486;46.738;7.622;2023-05-22T13:05:26;94883.00;;;29.16;27.56
30744;BME280;17486;46.738;7.622;2023-05-22T13:07:51;94884.06;;;29.22;27.71
30744;BME280;17486;46.738;7.622;2023-05-22T13:10:17;94883.63;;;29.18;27.60
30744;BME280;17486;46.738;7.622;2023-05-22T13:12:43;94871.25;;;29.10;27.34
30744;BME280;17486;46.738;7.622;2023-05-22T13:15:11;94870.66;;;29.15;26.93
30744;BME280;17486;46.738;7.622;2023-05-22T13:17:38;94878.69;;;29.15;27.45